< < Back
Terminal Aerodrome Forecast


Current Version              Previous Versions:   1  2  3  4  5  6  7  8  9  

Terminal Aerodrome Forecast

967
FTUS42 KJAX 191700
TAFGNV
TAF
KGNV 191732Z 1918/2018 11004KT P6SM SCT100 BKN200
     FM200000 00000KT P6SM SCT050 BKN100 BKN150
     FM200900 00000KT 4SM BR SCT050 BKN100 BKN150
     FM201500 05004KT P6SM SCT050 BKN100 BKN150=

Latest METAR

651
SAUS70 KWBC 200700 RRD
MTRGNV
METAR KGNV 200653Z AUTO 00000KT 10SM CLR 08/06 A3010 RMK AO2 SLP192
T00830056


USA.gov is the U.S. government's official web portal to all federal, state and local government web resources and services.